sensor_id;sensor_type;location;lat;lon;timestamp;pressure;altitude;pressure_sealevel;temperature;humidity
69257;BME280;56376;53.356;-1.748;2023-01-28T00:01:12;101016.91;;;3.56;100.00
69257;BME280;56376;53.356;-1.748;2023-01-28T00:03:38;101006.56;;;3.58;100.00
69257;BME280;56376;53.356;-1.748;2023-01-28T00:06:10;101015.22;;;3.60;100.00
69257;BME280;56376;53.356;-1.748;2023-01-28T00:08:36;101008.28;;;3.56;100.00
69257;BME280;56376;53.356;-1.748;2023-01-28T00:11:04;101023.88;;;3.60;100.00
69257;BME280;56376;53.356;-1.748;2023-01-28T00:13:30;101019.50;;;3.58;100.00
69257;BME280;56376;53.356;-1.748;2023-01-28T00:15:58;101016.03;;;3.57;100.00
69257;BME280;56376;53.356;-1.748;2023-01-28T00:18:25;101006.53;;;3.55;100.00
69257;BME280;56376;53.356;-1.748;2023-01-28T00:21:00;101006.56;;;3.56;100.00
69257;BME280;56376;53.356;-1.748;2023-01-28T00:23:32;101015.19;;;3.57;100.00
69257;BME280;56376;53.356;-1.748;2023-01-28T00:25:59;101010.88;;;3.56;100.00
69257;BME280;56376;53.356;-1.748;2023-01-28T00:28:24;101009.06;;;3.52;100.00
69257;BME280;56376;53.356;-1.748;2023-01-28T00:30:50;101007.34;;;3.52;100.00
69257;BME280;56376;53.356;-1.748;2023-01-28T00:33:15;101011.66;;;3.52;100.00
69257;BME280;56376;53.356;-1.748;2023-01-28T00:35:40;101012.56;;;3.54;100.00
69257;BME280;56376;53.356;-1.748;2023-01-28T00:38:06;101010.84;;;3.54;100.00
69257;BME280;56376;53.356;-1.748;2023-01-28T00:40:33;101003.91;;;3.52;100.00
69257;BME280;56376;53.356;-1.748;2023-01-28T00:42:58;100984.09;;;3.52;100.00
69257;BME280;56376;53.356;-1.748;2023-01-28T00:45:23;100987.53;;;3.51;100.00
69257;BME280;56376;53.356;-1.748;2023-01-28T00:47:49;100977.22;;;3.51;100.00
69257;BME280;56376;53.356;-1.748;2023-01-28T00:50:14;100988.41;;;3.52;100.00
69257;BME280;56376;53.356;-1.748;2023-01-28T00:52:40;100989.25;;;3.51;100.00
69257;BME280;56376;53.356;-1.748;2023-01-28T00:55:06;100996.94;;;3.47;100.00
69257;BME280;56376;53.356;-1.748;2023-01-28T00:57:32;101001.28;;;3.49;100.00
69257;BME280;56376;53.356;-1.748;2023-01-28T00:59:58;101005.59;;;3.48;100.00
69257;BME280;56376;53.356;-1.748;2023-01-28T01:02:24;100995.22;;;3.46;100.00
69257;BME280;56376;53.356;-1.748;2023-01-28T01:04:49;101000.38;;;3.46;100.00
69257;BME280;56376;53.356;-1.748;2023-01-28T01:07:27;101003.88;;;3.49;100.00
69257;BME280;56376;53.356;-1.748;2023-01-28T01:10:14;101004.69;;;3.46;100.00
69257;BME280;56376;53.356;-1.748;2023-01-28T01:12:40;101004.72;;;3.49;100.00
69257;BME280;56376;53.356;-1.748;2023-01-28T01:15:06;101003.88;;;3.49;100.00
69257;BME280;56376;53.356;-1.748;2023-01-28T01:17:37;100996.94;;;3.47;100.00
69257;BME280;56376;53.356;-1.748;2023-01-28T01:20:04;101003.81;;;3.47;100.00
69257;BME280;56376;53.356;-1.748;2023-01-28T01:22:35;100994.41;;;3.49;100.00
69257;BME280;56376;53.356;-1.748;2023-01-28T01:25:01;101009.91;;;3.49;100.00
69257;BME280;56376;53.356;-1.748;2023-01-28T01:27:26;101003.00;;;3.50;100.00
69257;BME280;56376;53.356;-1.748;2023-01-28T01:29:52;100997.03;;;3.51;100.00
69257;BME280;56376;53.356;-1.748;2023-01-28T01:32:17;100984.94;;;3.50;100.00
69257;BME280;56376;53.356;-1.748;2023-01-28T01:34:43;100970.31;;;3.52;100.00
69257;BME280;56376;53.356;-1.748;2023-01-28T01:37:08;100964.28;;;3.53;100.00
69257;BME280;56376;53.356;-1.748;2023-01-28T01:39:35;100970.34;;;3.53;100.00
69257;BME280;56376;53.356;-1.748;2023-01-28T01:42:00;100976.41;;;3.55;100.00
69257;BME280;56376;53.356;-1.748;2023-01-28T01:44:52;100966.94;;;3.56;100.00
69257;BME280;56376;53.356;-1.748;2023-01-28T01:50:03;100979.88;;;3.56;100.00
69257;BME280;56376;53.356;-1.748;2023-01-28T01:52:34;100972.13;;;3.56;100.00
69257;BME280;56376;53.356;-1.748;2023-01-28T01:55:03;100975.56;;;3.56;100.00
69257;BME280;56376;53.356;-1.748;2023-01-28T01:57:31;100971.25;;;3.57;100.00
69257;BME280;56376;53.356;-1.748;2023-01-28T02:00:00;100974.69;;;3.56;100.00
69257;BME280;56376;53.356;-1.748;2023-01-28T02:02:42;100971.25;;;3.57;100.00
69257;BME280;56376;53.356;-1.748;2023-01-28T02:05:11;100965.22;;;3.58;100.00
69257;BME280;56376;53.356;-1.748;2023-01-28T02:07:38;100952.31;;;3.58;100.00
69257;BME280;56376;53.356;-1.748;2023-01-28T02:10:05;100945.47;;;3.60;100.00
69257;BME280;56376;53.356;-1.748;2023-01-28T02:12:36;100946.34;;;3.60;100.00
69257;BME280;56376;53.356;-1.748;2023-01-28T02:15:08;100941.19;;;3.60;100.00
69257;BME280;56376;53.356;-1.748;2023-01-28T02:17:35;100935.97;;;3.59;100.00
69257;BME280;56376;53.356;-1.748;2023-01-28T02:20:04;100940.28;;;3.60;100.00
69257;BME280;56376;53.356;-1.748;2023-01-28T02:28:01;100918.69;;;3.55;100.00
69257;BME280;56376;53.356;-1.748;2023-01-28T02:31:02;100925.53;;;3.53;100.00
69257;BME280;56376;53.356;-1.748;2023-01-28T02:33:34;100924.59;;;3.47;100.00
69257;BME280;56376;53.356;-1.748;2023-01-28T02:36:15;100924.56;;;3.44;100.00
69257;BME280;56376;53.356;-1.748;2023-01-28T02:38:46;100935.72;;;3.42;100.00
69257;BME280;56376;53.356;-1.748;2023-01-28T02:41:20;100930.47;;;3.37;100.00
69257;BME280;56376;53.356;-1.748;2023-01-28T02:43:47;100931.31;;;3.33;100.00
69257;BME280;56376;53.356;-1.748;2023-01-28T02:54:44;100927.75;;;3.27;100.00
69257;BME280;56376;53.356;-1.748;2023-01-28T02:57:33;100921.63;;;3.21;100.00
69257;BME280;56376;53.356;-1.748;2023-01-28T03:00:10;100925.91;;;3.18;100.00
69257;BME280;56376;53.356;-1.748;2023-01-28T03:02:45;100910.28;;;3.12;100.00
69257;BME280;56376;53.356;-1.748;2023-01-28T03:05:16;100923.13;;;3.07;100.00
69257;BME280;56376;53.356;-1.748;2023-01-28T03:07:45;100929.06;;;3.01;100.00
69257;BME280;56376;53.356;-1.748;2023-01-28T03:10:14;100926.38;;;2.97;100.00
69257;BME280;56376;53.356;-1.748;2023-01-28T03:12:43;100919.47;;;2.93;100.00
69257;BME280;56376;53.356;-1.748;2023-01-28T03:15:48;100919.41;;;2.91;100.00
69257;BME280;56376;53.356;-1.748;2023-01-28T03:18:37;100921.13;;;2.92;100.00
69257;BME280;56376;53.356;-1.748;2023-01-28T03:21:32;100910.81;;;2.92;100.00
69257;BME280;56376;53.356;-1.748;2023-01-28T03:24:27;100909.22;;;2.97;100.00
69257;BME280;56376;53.356;-1.748;2023-01-28T03:27:13;100911.81;;;2.99;100.00
69257;BME280;56376;53.356;-1.748;2023-01-28T03:30:07;100898.00;;;2.97;100.00
69257;BME280;56376;53.356;-1.748;2023-01-28T03:32:52;100911.78;;;2.97;100.00
69257;BME280;56376;53.356;-1.748;2023-01-28T03:35:37;100918.72;;;3.00;100.00
69257;BME280;56376;53.356;-1.748;2023-01-28T03:38:22;100933.34;;;3.01;100.00
69257;BME280;56376;53.356;-1.748;2023-01-28T03:40:58;100929.09;;;3.03;100.00
69257;BME280;56376;53.356;-1.748;2023-01-28T03:43:25;100929.19;;;3.08;100.00
69257;BME280;56376;53.356;-1.748;2023-01-28T03:45:51;100916.25;;;3.08;100.00
69257;BME280;56376;53.356;-1.748;2023-01-28T03:48:22;100920.56;;;3.09;100.00
69257;BME280;56376;53.356;-1.748;2023-01-28T03:50:48;100918.84;;;3.08;100.00
69257;BME280;56376;53.356;-1.748;2023-01-28T03:53:19;100905.91;;;3.06;100.00
69257;BME280;56376;53.356;-1.748;2023-01-28T03:55:46;100904.19;;;3.07;100.00
69257;BME280;56376;53.356;-1.748;2023-01-28T03:58:12;100909.31;;;3.03;100.00
69257;BME280;56376;53.356;-1.748;2023-01-28T04:00:38;100911.97;;;3.10;100.00
69257;BME280;56376;53.356;-1.748;2023-01-28T04:03:14;100911.09;;;3.08;100.00
69257;BME280;56376;53.356;-1.748;2023-01-28T04:06:04;100910.16;;;3.04;100.00
69257;BME280;56376;53.356;-1.748;2023-01-28T04:08:30;100916.09;;;2.98;100.00
69257;BME280;56376;53.356;-1.748;2023-01-28T04:10:56;100915.19;;;2.95;100.00
69257;BME280;56376;53.356;-1.748;2023-01-28T04:13:21;100912.63;;;2.95;100.00
69257;BME280;56376;53.356;-1.748;2023-01-28T04:15:46;100905.75;;;2.97;100.00
69257;BME280;56376;53.356;-1.748;2023-01-28T04:18:12;100909.19;;;2.96;100.00
69257;BME280;56376;53.356;-1.748;2023-01-28T04:20:38;100910.03;;;2.96;100.00
69257;BME280;56376;53.356;-1.748;2023-01-28T04:23:04;100902.28;;;2.95;100.00
69257;BME280;56376;53.356;-1.748;2023-01-28T04:25:30;100911.72;;;2.93;100.00
69257;BME280;56376;53.356;-1.748;2023-01-28T04:27:56;100906.47;;;2.88;100.00
69257;BME280;56376;53.356;-1.748;2023-01-28T04:30:22;100903.88;;;2.88;100.00
69257;BME280;56376;53.356;-1.748;2023-01-28T04:32:47;100910.81;;;2.91;100.00
69257;BME280;56376;53.356;-1.748;2023-01-28T04:35:15;100909.91;;;2.89;100.00
69257;BME280;56376;53.356;-1.748;2023-01-28T04:37:41;100920.19;;;2.87;100.00
69257;BME280;56376;53.356;-1.748;2023-01-28T04:40:07;100918.50;;;2.88;100.00
69257;BME280;56376;53.356;-1.748;2023-01-28T04:42:33;100909.88;;;2.87;100.00
69257;BME280;56376;53.356;-1.748;2023-01-28T04:44:58;100915.03;;;2.86;100.00
69257;BME280;56376;53.356;-1.748;2023-01-28T04:47:23;100927.06;;;2.87;100.00
69257;BME280;56376;53.356;-1.748;2023-01-28T04:49:49;100925.31;;;2.84;100.00
69257;BME280;56376;53.356;-1.748;2023-01-28T04:52:14;100931.41;;;2.88;100.00
69257;BME280;56376;53.356;-1.748;2023-01-28T04:54:39;100927.06;;;2.87;100.00
69257;BME280;56376;53.356;-1.748;2023-01-28T04:57:05;100939.16;;;2.88;100.00
69257;BME280;56376;53.356;-1.748;2023-01-28T04:59:30;100938.22;;;2.84;100.00
69257;BME280;56376;53.356;-1.748;2023-01-28T05:01:55;100944.28;;;2.86;100.00
69257;BME280;56376;53.356;-1.748;2023-01-28T05:04:21;100952.03;;;2.86;100.00
69257;BME280;56376;53.356;-1.748;2023-01-28T05:06:47;100943.41;;;2.86;100.00
69257;BME280;56376;53.356;-1.748;2023-01-28T05:09:13;100948.63;;;2.89;100.00
69257;BME280;56376;53.356;-1.748;2023-01-28T05:11:38;100933.13;;;2.89;100.00
69257;BME280;56376;53.356;-1.748;2023-01-28T05:14:03;100952.13;;;2.92;100.00
69257;BME280;56376;53.356;-1.748;2023-01-28T05:16:29;100959.03;;;2.93;100.00
69257;BME280;56376;53.356;-1.748;2023-01-28T05:18:56;100965.16;;;2.98;100.00
69257;BME280;56376;53.356;-1.748;2023-01-28T05:21:21;100952.97;;;2.91;100.00
69257;BME280;56376;53.356;-1.748;2023-01-28T05:23:46;100963.34;;;2.94;100.00
69257;BME280;56376;53.356;-1.748;2023-01-28T05:26:12;100951.28;;;2.93;100.00
69257;BME280;56376;53.356;-1.748;2023-01-28T05:28:37;100950.44;;;2.93;100.00
69257;BME280;56376;53.356;-1.748;2023-01-28T05:31:04;100947.84;;;2.93;100.00
69257;BME280;56376;53.356;-1.748;2023-01-28T05:33:30;100947.78;;;2.90;100.00
69257;BME280;56376;53.356;-1.748;2023-01-28T05:35:55;100953.03;;;2.94;100.00
69257;BME280;56376;53.356;-1.748;2023-01-28T05:38:20;100949.53;;;2.92;100.00
69257;BME280;56376;53.356;-1.748;2023-01-28T05:40:46;100959.06;;;2.95;100.00
69257;BME280;56376;53.356;-1.748;2023-01-28T05:43:12;100954.72;;;2.94;100.00
69257;BME280;56376;53.356;-1.748;2023-01-28T05:45:37;100953.91;;;2.95;100.00
69257;BME280;56376;53.356;-1.748;2023-01-28T05:48:03;100953.09;;;2.97;100.00
69257;BME280;56376;53.356;-1.748;2023-01-28T05:50:28;100947.03;;;2.97;100.00
69257;BME280;56376;53.356;-1.748;2023-01-28T05:52:53;100935.03;;;2.99;100.00
69257;BME280;56376;53.356;-1.748;2023-01-28T05:55:19;100938.50;;;3.01;100.00
69257;BME280;56376;53.356;-1.748;2023-01-28T05:57:44;100935.06;;;3.00;100.00
69257;BME280;56376;53.356;-1.748;2023-01-28T06:00:10;100937.63;;;2.99;100.00
69257;BME280;56376;53.356;-1.748;2023-01-28T06:02:36;100932.44;;;2.99;100.00
69257;BME280;56376;53.356;-1.748;2023-01-28T06:05:02;100935.03;;;2.97;100.00
69257;BME280;56376;53.356;-1.748;2023-01-28T06:07:27;100929.88;;;2.97;100.00
69257;BME280;56376;53.356;-1.748;2023-01-28T06:09:52;100925.59;;;3.01;100.00
69257;BME280;56376;53.356;-1.748;2023-01-28T06:12:18;100924.75;;;3.00;100.00
69257;BME280;56376;53.356;-1.748;2023-01-28T06:14:43;100925.56;;;2.99;100.00
69257;BME280;56376;53.356;-1.748;2023-01-28T06:17:09;100929.03;;;3.00;100.00
69257;BME280;56376;53.356;-1.748;2023-01-28T06:19:34;100943.69;;;3.01;100.00
69257;BME280;56376;53.356;-1.748;2023-01-28T06:21:59;100945.34;;;2.99;100.00
69257;BME280;56376;53.356;-1.748;2023-01-28T06:24:25;100940.22;;;3.00;100.00
69257;BME280;56376;53.356;-1.748;2023-01-28T06:26:50;100945.41;;;3.02;100.00
69257;BME280;56376;53.356;-1.748;2023-01-28T06:29:16;100934.22;;;3.01;100.00
69257;BME280;56376;53.356;-1.748;2023-01-28T06:31:41;100945.50;;;3.07;100.00
69257;BME280;56376;53.356;-1.748;2023-01-28T06:34:08;100960.16;;;3.08;100.00
69257;BME280;56376;53.356;-1.748;2023-01-28T06:36:34;100949.81;;;3.08;100.00
69257;BME280;56376;53.356;-1.748;2023-01-28T06:39:00;100951.50;;;3.07;100.00
69257;BME280;56376;53.356;-1.748;2023-01-28T06:41:25;100952.41;;;3.08;100.00
69257;BME280;56376;53.356;-1.748;2023-01-28T06:43:51;100952.41;;;3.09;100.00
69257;BME280;56376;53.356;-1.748;2023-01-28T06:46:16;100942.09;;;3.08;100.00
69257;BME280;56376;53.356;-1.748;2023-01-28T06:48:42;100946.44;;;3.10;100.00
69257;BME280;56376;53.356;-1.748;2023-01-28T06:51:07;100959.34;;;3.12;100.00
69257;BME280;56376;53.356;-1.748;2023-01-28T06:53:33;100955.94;;;3.13;100.00
69257;BME280;56376;53.356;-1.748;2023-01-28T06:55:58;100958.56;;;3.17;100.00
69257;BME280;56376;53.356;-1.748;2023-01-28T06:58:23;100946.56;;;3.18;100.00
69257;BME280;56376;53.356;-1.748;2023-01-28T07:00:49;100944.88;;;3.21;100.00
69257;BME280;56376;53.356;-1.748;2023-01-28T07:03:15;100941.47;;;3.24;100.00
69257;BME280;56376;53.356;-1.748;2023-01-28T07:05:40;100948.31;;;3.20;100.00
69257;BME280;56376;53.356;-1.748;2023-01-28T07:08:05;100940.56;;;3.22;100.00
69257;BME280;56376;53.356;-1.748;2023-01-28T07:10:31;100932.81;;;3.20;100.00
69257;BME280;56376;53.356;-1.748;2023-01-28T07:12:56;100944.84;;;3.20;100.00
69257;BME280;56376;53.356;-1.748;2023-01-28T07:15:22;100959.47;;;3.18;100.00
69257;BME280;56376;53.356;-1.748;2023-01-28T07:17:47;100968.03;;;3.17;100.00
69257;BME280;56376;53.356;-1.748;2023-01-28T07:20:13;100974.97;;;3.18;100.00
69257;BME280;56376;53.356;-1.748;2023-01-28T07:22:41;100980.94;;;3.17;100.00
69257;BME280;56376;53.356;-1.748;2023-01-28T07:25:07;100980.13;;;3.18;100.00
69257;BME280;56376;53.356;-1.748;2023-01-28T07:27:33;100976.66;;;3.17;100.00
69257;BME280;56376;53.356;-1.748;2023-01-28T07:29:59;100974.16;;;3.22;100.00
69257;BME280;56376;53.356;-1.748;2023-01-28T07:32:24;100987.06;;;3.20;100.00
69257;BME280;56376;53.356;-1.748;2023-01-28T07:34:51;100987.88;;;3.18;100.00
69257;BME280;56376;53.356;-1.748;2023-01-28T07:37:17;100990.47;;;3.19;100.00
69257;BME280;56376;53.356;-1.748;2023-01-28T07:39:42;100983.56;;;3.18;100.00
69257;BME280;56376;53.356;-1.748;2023-01-28T07:42:08;100986.94;;;3.14;100.00
69257;BME280;56376;53.356;-1.748;2023-01-28T07:44:33;100996.44;;;3.15;100.00
69257;BME280;56376;53.356;-1.748;2023-01-28T07:47:00;100986.03;;;3.11;100.00
69257;BME280;56376;53.356;-1.748;2023-01-28T07:49:26;100995.53;;;3.13;100.00
69257;BME280;56376;53.356;-1.748;2023-01-28T07:51:51;100991.22;;;3.14;100.00
69257;BME280;56376;53.356;-1.748;2023-01-28T07:54:17;100990.38;;;3.13;100.00
69257;BME280;56376;53.356;-1.748;2023-01-28T07:56:42;100996.34;;;3.11;100.00
69257;BME280;56376;53.356;-1.748;2023-01-28T07:59:08;100987.75;;;3.10;100.00
69257;BME280;56376;53.356;-1.748;2023-01-28T08:01:33;100991.19;;;3.11;100.00
69257;BME280;56376;53.356;-1.748;2023-01-28T08:03:58;100991.19;;;3.11;100.00
69257;BME280;56376;53.356;-1.748;2023-01-28T08:06:24;100980.00;;;3.10;100.00
69257;BME280;56376;53.356;-1.748;2023-01-28T08:08:49;100987.69;;;3.09;100.00
69257;BME280;56376;53.356;-1.748;2023-01-28T08:11:15;100999.75;;;3.10;100.00
69257;BME280;56376;53.356;-1.748;2023-01-28T08:13:40;100982.50;;;3.07;100.00
69257;BME280;56376;53.356;-1.748;2023-01-28T08:16:06;100992.81;;;3.06;100.00
69257;BME280;56376;53.356;-1.748;2023-01-28T08:18:32;100989.34;;;3.03;100.00
69257;BME280;56376;53.356;-1.748;2023-01-28T08:20:58;100978.16;;;3.04;100.00
69257;BME280;56376;53.356;-1.748;2023-01-28T08:23:24;100973.81;;;3.02;100.00
69257;BME280;56376;53.356;-1.748;2023-01-28T08:25:57;100976.38;;;3.00;100.00
69257;BME280;56376;53.356;-1.748;2023-01-28T08:28:23;100979.72;;;2.96;100.00
69257;BME280;56376;53.356;-1.748;2023-01-28T08:30:48;100974.56;;;2.96;100.00
69257;BME280;56376;53.356;-1.748;2023-01-28T08:33:15;100978.81;;;2.94;100.00
69257;BME280;56376;53.356;-1.748;2023-01-28T08:35:41;100959.84;;;2.92;100.00
69257;BME280;56376;53.356;-1.748;2023-01-28T08:38:07;100965.91;;;2.94;100.00
69257;BME280;56376;53.356;-1.748;2023-01-28T08:40:34;100965.88;;;2.91;100.00
69257;BME280;56376;53.356;-1.748;2023-01-28T08:42:59;100959.91;;;2.94;100.00
69257;BME280;56376;53.356;-1.748;2023-01-28T08:45:26;100951.28;;;2.93;100.00
69257;BME280;56376;53.356;-1.748;2023-01-28T08:47:52;100957.34;;;2.95;100.00
69257;BME280;56376;53.356;-1.748;2023-01-28T08:50:20;100955.69;;;2.97;100.00
69257;BME280;56376;53.356;-1.748;2023-01-28T08:52:46;100951.38;;;2.98;100.00
69257;BME280;56376;53.356;-1.748;2023-01-28T08:55:14;100952.28;;;3.01;100.00
69257;BME280;56376;53.356;-1.748;2023-01-28T08:57:39;100948.88;;;3.02;100.00
69257;BME280;56376;53.356;-1.748;2023-01-28T09:00:08;100961.84;;;3.06;100.00
69257;BME280;56376;53.356;-1.748;2023-01-28T09:02:39;100967.94;;;3.12;100.00
69257;BME280;56376;53.356;-1.748;2023-01-28T09:05:12;100953.53;;;3.23;100.00
69257;BME280;56376;53.356;-1.748;2023-01-28T09:07:39;100967.53;;;3.38;100.00
69257;BME280;56376;53.356;-1.748;2023-01-28T09:10:05;100965.94;;;3.46;100.00
69257;BME280;56376;53.356;-1.748;2023-01-28T09:12:31;100964.44;;;3.60;100.00
69257;BME280;56376;53.356;-1.748;2023-01-28T09:14:57;100961.16;;;3.71;100.00
69257;BME280;56376;53.356;-1.748;2023-01-28T09:17:22;100961.28;;;3.81;100.00
69257;BME280;56376;53.356;-1.748;2023-01-28T09:19:48;100970.09;;;3.94;100.00
69257;BME280;56376;53.356;-1.748;2023-01-28T09:22:14;100965.84;;;3.99;100.00
69257;BME280;56376;53.356;-1.748;2023-01-28T09:24:40;100975.38;;;4.05;100.00
69257;BME280;56376;53.356;-1.748;2023-01-28T09:27:05;100981.44;;;4.04;100.00
69257;BME280;56376;53.356;-1.748;2023-01-28T09:29:33;100981.38;;;4.02;100.00
69257;BME280;56376;53.356;-1.748;2023-01-28T09:31:58;100978.81;;;4.01;100.00
69257;BME280;56376;53.356;-1.748;2023-01-28T09:34:24;100984.00;;;4.04;100.00
69257;BME280;56376;53.356;-1.748;2023-01-28T09:36:49;100981.47;;;4.07;100.00
69257;BME280;56376;53.356;-1.748;2023-01-28T09:39:14;100992.72;;;4.12;100.00
69257;BME280;56376;53.356;-1.748;2023-01-28T09:41:59;100994.56;;;4.19;100.00
69257;BME280;56376;53.356;-1.748;2023-01-28T09:47:02;100997.38;;;4.36;100.00
69257;BME280;56376;53.356;-1.748;2023-01-28T09:49:50;100994.03;;;4.46;100.00
69257;BME280;56376;53.356;-1.748;2023-01-28T09:52:20;100997.59;;;4.58;100.00
69257;BME280;56376;53.356;-1.748;2023-01-28T09:54:49;100989.09;;;4.68;100.00
69257;BME280;56376;53.356;-1.748;2023-01-28T09:57:37;100988.34;;;4.76;100.00
69257;BME280;56376;53.356;-1.748;2023-01-28T10:00:52;100985.00;;;4.87;100.00
69257;BME280;56376;53.356;-1.748;2023-01-28T10:09:16;100994.75;;;5.12;100.00
69257;BME280;56376;53.356;-1.748;2023-01-28T10:17:21;101007.75;;;5.21;100.00
69257;BME280;56376;53.356;-1.748;2023-01-28T10:19:56;101008.72;;;5.31;100.00
69257;BME280;56376;53.356;-1.748;2023-01-28T10:22:43;101006.22;;;5.42;100.00
69257;BME280;56376;53.356;-1.748;2023-01-28T10:25:20;101008.97;;;5.63;100.00
69257;BME280;56376;53.356;-1.748;2023-01-28T10:27:47;101012.59;;;5.85;100.00
69257;BME280;56376;53.356;-1.748;2023-01-28T10:30:29;101013.63;;;6.12;100.00
69257;BME280;56376;53.356;-1.748;2023-01-28T10:35:25;101016.50;;;6.63;100.00
69257;BME280;56376;53.356;-1.748;2023-01-28T10:37:59;101004.41;;;6.85;100.00
69257;BME280;56376;53.356;-1.748;2023-01-28T10:40:26;101008.81;;;7.01;100.00
69257;BME280;56376;53.356;-1.748;2023-01-28T10:42:51;101011.41;;;7.13;100.00
69257;BME280;56376;53.356;-1.748;2023-01-28T10:47:55;101018.38;;;7.21;100.00
69257;BME280;56376;53.356;-1.748;2023-01-28T10:50:25;101018.38;;;7.31;100.00
69257;BME280;56376;53.356;-1.748;2023-01-28T10:53:01;101023.56;;;7.45;100.00
69257;BME280;56376;53.356;-1.748;2023-01-28T10:58:18;101021.84;;;7.64;100.00
69257;BME280;56376;53.356;-1.748;2023-01-28T11:00:45;101027.91;;;7.77;98.83
69257;BME280;56376;53.356;-1.748;2023-01-28T11:03:20;101036.56;;;7.73;99.02
69257;BME280;56376;53.356;-1.748;2023-01-28T11:05:51;101031.34;;;7.76;99.54
69257;BME280;56376;53.356;-1.748;2023-01-28T11:08:17;101030.50;;;7.72;100.00
69257;BME280;56376;53.356;-1.748;2023-01-28T11:10:44;101034.84;;;7.69;100.00
69257;BME280;56376;53.356;-1.748;2023-01-28T11:15:55;101049.56;;;7.39;100.00
69257;BME280;56376;53.356;-1.748;2023-01-28T11:18:25;101050.41;;;7.23;100.00
69257;BME280;56376;53.356;-1.748;2023-01-28T11:21:25;101036.53;;;7.07;100.00
69257;BME280;56376;53.356;-1.748;2023-01-28T11:24:04;101041.72;;;7.04;100.00
69257;BME280;56376;53.356;-1.748;2023-01-28T11:26:36;101041.72;;;7.01;100.00
69257;BME280;56376;53.356;-1.748;2023-01-28T11:29:03;101040.84;;;6.96;100.00
69257;BME280;56376;53.356;-1.748;2023-01-28T11:31:39;101028.69;;;6.94;100.00
69257;BME280;56376;53.356;-1.748;2023-01-28T11:34:06;101023.50;;;6.99;100.00
69257;BME280;56376;53.356;-1.748;2023-01-28T11:36:32;101013.13;;;7.04;100.00
69257;BME280;56376;53.356;-1.748;2023-01-28T11:39:00;100994.09;;;7.17;100.00
69257;BME280;56376;53.356;-1.748;2023-01-28T11:41:32;100997.56;;;7.31;100.00
69257;BME280;56376;53.356;-1.748;2023-01-28T11:43:59;100994.97;;;7.31;100.00
69257;BME280;56376;53.356;-1.748;2023-01-28T11:49:42;100984.56;;;7.39;100.00
69257;BME280;56376;53.356;-1.748;2023-01-28T11:55:34;100983.69;;;7.28;100.00
69257;BME280;56376;53.356;-1.748;2023-01-28T11:58:21;100972.44;;;7.21;100.00
69257;BME280;56376;53.356;-1.748;2023-01-28T12:12:33;100950.78;;;7.36;100.00
69257;BME280;56376;53.356;-1.748;2023-01-28T12:21:47;100955.09;;;7.32;100.00
69257;BME280;56376;53.356;-1.748;2023-01-28T12:24:40;100942.09;;;7.35;100.00
69257;BME280;56376;53.356;-1.748;2023-01-28T12:29:49;100947.31;;;7.40;100.00
69257;BME280;56376;53.356;-1.748;2023-01-28T12:32:23;100945.56;;;7.51;100.00
69257;BME280;56376;53.356;-1.748;2023-01-28T12:40:56;100931.59;;;8.01;100.00
69257;BME280;56376;53.356;-1.748;2023-01-28T12:44:16;100929.78;;;8.19;100.00
69257;BME280;56376;53.356;-1.748;2023-01-28T12:49:11;100911.41;;;8.57;100.00
69257;BME280;56376;53.356;-1.748;2023-01-28T12:57:22;100898.06;;;8.99;100.00
69257;BME280;56376;53.356;-1.748;2023-01-28T12:59:51;100891.91;;;9.10;100.00
69257;BME280;56376;53.356;-1.748;2023-01-28T13:02:37;100887.44;;;9.23;100.00
69257;BME280;56376;53.356;-1.748;2023-01-28T13:05:16;100886.50;;;9.29;100.00
69257;BME280;56376;53.356;-1.748;2023-01-28T13:08:00;100892.50;;;9.40;100.00
69257;BME280;56376;53.356;-1.748;2023-01-28T13:12:59;100906.16;;;9.65;97.52
69257;BME280;56376;53.356;-1.748;2023-01-28T13:15:25;100904.44;;;9.63;96.14
69257;BME280;56376;53.356;-1.748;2023-01-28T13:18:01;100901.88;;;9.57;95.59
69257;BME280;56376;53.356;-1.748;2023-01-28T13:20:30;100909.81;;;9.46;98.91
69257;BME280;56376;53.356;-1.748;2023-01-28T13:26:23;100893.38;;;9.41;100.00
69257;BME280;56376;53.356;-1.748;2023-01-28T13:28:52;100899.41;;;9.44;100.00
69257;BME280;56376;53.356;-1.748;2023-01-28T13:31:22;100901.13;;;9.47;100.00
69257;BME280;56376;53.356;-1.748;2023-01-28T13:36:26;100899.44;;;9.41;100.00
69257;BME280;56376;53.356;-1.748;2023-01-28T13:41:42;100900.41;;;9.31;100.00
69257;BME280;56376;53.356;-1.748;2023-01-28T13:46:46;100916.94;;;9.30;100.00
69257;BME280;56376;53.356;-1.748;2023-01-28T13:49:15;100918.69;;;9.28;100.00
69257;BME280;56376;53.356;-1.748;2023-01-28T13:54:23;100919.66;;;9.18;99.91
69257;BME280;56376;53.356;-1.748;2023-01-28T13:57:42;100918.81;;;9.11;100.00
69257;BME280;56376;53.356;-1.748;2023-01-28T14:11:03;100906.84;;;8.88;100.00
69257;BME280;56376;53.356;-1.748;2023-01-28T14:16:22;100903.38;;;8.86;100.00
69257;BME280;56376;53.356;-1.748;2023-01-28T14:18:55;100907.75;;;8.84;100.00
69257;BME280;56376;53.356;-1.748;2023-01-28T14:21:21;100906.88;;;8.84;100.00
69257;BME280;56376;53.356;-1.748;2023-01-28T14:23:49;100904.25;;;8.84;100.00
69257;BME280;56376;53.356;-1.748;2023-01-28T14:29:37;100905.13;;;8.86;100.00
69257;BME280;56376;53.356;-1.748;2023-01-28T14:32:21;100898.13;;;8.93;100.00
69257;BME280;56376;53.356;-1.748;2023-01-28T14:34:49;100912.84;;;9.00;100.00
69257;BME280;56376;53.356;-1.748;2023-01-28T14:37:17;100912.03;;;8.90;100.00
69257;BME280;56376;53.356;-1.748;2023-01-28T14:39:51;100905.16;;;8.78;100.00
69257;BME280;56376;53.356;-1.748;2023-01-28T14:42:21;100905.19;;;8.75;100.00
69257;BME280;56376;53.356;-1.748;2023-01-28T14:45:02;100906.94;;;8.75;100.00
69257;BME280;56376;53.356;-1.748;2023-01-28T14:47:45;100911.38;;;8.62;100.00
69257;BME280;56376;53.356;-1.748;2023-01-28T14:53:29;100917.50;;;8.50;100.00